createdAt,value
2017-12-26T00:00:59.908Z,3.67
2017-12-26T00:02:09.598Z,3.7
2017-12-26T00:03:19.552Z,3.67
2017-12-26T00:04:29.500Z,3.66
2017-12-26T00:05:39.185Z,3.64
2017-12-26T00:06:49.150Z,3.71
2017-12-26T00:07:58.840Z,3.63
2017-12-26T00:09:08.536Z,3.55
2017-12-26T00:10:18.239Z,3.55
2017-12-26T00:11:28.193Z,3.59
2017-12-26T00:12:38.138Z,3.56
2017-12-26T00:13:47.567Z,3.5
2017-12-26T00:14:57.525Z,3.49
2017-12-26T00:16:07.282Z,3.58
2017-12-26T00:17:17.237Z,3.58
2017-12-26T00:18:27.192Z,3.53
2017-12-26T00:19:37.146Z,3.55
2017-12-26T00:20:47.148Z,3.45
2017-12-26T00:21:57.124Z,3.41
2017-12-26T00:23:07.067Z,3.37
2017-12-26T00:24:17.027Z,3.4
2017-12-26T00:25:26.971Z,3.37
2017-12-26T00:26:36.927Z,3.33
2017-12-26T00:27:46.872Z,3.36
2017-12-26T00:28:56.584Z,3.34
2017-12-26T00:30:06.553Z,3.31
2017-12-26T00:31:16.242Z,3.36
2017-12-26T00:32:26.217Z,3.3
2017-12-26T00:33:36.190Z,3.29
2017-12-26T00:34:46.147Z,3.26
2017-12-26T00:35:55.833Z,3.22
2017-12-26T00:37:05.790Z,3.27
2017-12-26T00:38:15.759Z,3.24
2017-12-26T00:39:25.712Z,3.3
2017-12-26T00:40:35.164Z,3.24
2017-12-26T00:41:45.156Z,3.19
2017-12-26T00:42:55.114Z,3.09
2017-12-26T00:44:05.065Z,3.11
2017-12-26T00:45:15.025Z,3.06
2017-12-26T00:46:24.719Z,3.09
2017-12-26T00:47:34.674Z,3.09
2017-12-26T00:48:44.618Z,3.18
2017-12-26T00:49:54.572Z,3.13
2017-12-26T00:51:04.530Z,3.06
2017-12-26T00:52:13.974Z,3.13
2017-12-26T00:53:23.919Z,3.05
2017-12-26T00:54:33.876Z,3.03
2017-12-26T00:55:43.827Z,3.11
2017-12-26T00:56:53.254Z,3.03
2017-12-26T00:58:03.204Z,3.05
2017-12-26T00:59:13.150Z,2.95
2017-12-26T01:00:23.103Z,3.05
2017-12-26T01:01:32.802Z,2.97
2017-12-26T01:02:42.488Z,3.01
2017-12-26T01:03:52.450Z,2.97
2017-12-26T01:05:02.388Z,2.95
2017-12-26T01:06:12.091Z,3.01
2017-12-26T01:07:22.063Z,3.01
2017-12-26T01:08:32.017Z,2.94
2017-12-26T01:09:41.713Z,2.94
2017-12-26T01:10:51.674Z,3
2017-12-26T01:12:01.362Z,2.94
2017-12-26T01:13:11.056Z,2.91
2017-12-26T01:14:20.757Z,2.93
2017-12-26T01:15:30.457Z,2.91
2017-12-26T01:16:40.405Z,2.93
2017-12-26T01:17:50.346Z,2.93
2017-12-26T01:19:00.038Z,2.91
2017-12-26T01:20:09.984Z,2.98
2017-12-26T01:21:19.934Z,2.95
2017-12-26T01:22:29.621Z,2.9
2017-12-26T01:23:39.570Z,2.9
2017-12-26T01:24:49.524Z,2.85
2017-12-26T01:25:59.473Z,2.87
2017-12-26T01:27:09.426Z,2.83
2017-12-26T01:28:19.122Z,2.88
2017-12-26T01:29:29.065Z,2.87
2017-12-26T01:30:39.011Z,2.85
2017-12-26T01:31:48.972Z,2.82
2017-12-26T01:32:58.669Z,2.75
2017-12-26T01:34:08.612Z,2.82
2017-12-26T01:35:18.570Z,2.75
2017-12-26T01:36:28.525Z,2.76
2017-12-26T01:37:38.472Z,2.73
2017-12-26T01:38:48.414Z,2.72
2017-12-26T01:39:58.125Z,2.73
2017-12-26T01:41:08.086Z,2.75
2017-12-26T01:42:17.774Z,2.69
2017-12-26T01:43:27.460Z,2.7
2017-12-26T01:44:37.409Z,2.61
2017-12-26T01:45:47.111Z,2.75
2017-12-26T01:46:57.051Z,2.65
2017-12-26T01:48:06.238Z,2.68
2017-12-26T01:49:16.240Z,2.7
2017-12-26T01:50:26.190Z,2.65
2017-12-26T01:51:35.881Z,2.68
2017-12-26T01:52:45.829Z,2.61
2017-12-26T01:53:55.769Z,2.59
2017-12-26T01:55:05.206Z,2.62
2017-12-26T01:56:15.145Z,2.59
2017-12-26T01:57:24.883Z,2.69
2017-12-26T01:58:34.842Z,2.68
2017-12-26T01:59:44.819Z,2.68
2017-12-26T02:00:54.757Z,2.64
2017-12-26T02:02:04.461Z,2.59
2017-12-26T02:03:14.419Z,2.61
2017-12-26T02:04:24.602Z,2.57
2017-12-26T02:05:34.555Z,2.62
2017-12-26T02:06:44.507Z,2.55
2017-12-26T02:07:54.199Z,2.54
2017-12-26T02:09:03.894Z,2.52
2017-12-26T02:10:13.858Z,2.52
2017-12-26T02:11:23.812Z,2.47
2017-12-26T02:12:33.526Z,2.54
2017-12-26T02:13:43.224Z,2.5
2017-12-26T02:14:53.164Z,2.44
2017-12-26T02:16:03.116Z,2.46
2017-12-26T02:17:12.802Z,2.52
2017-12-26T02:18:22.759Z,2.41
2017-12-26T02:19:32.454Z,2.36
2017-12-26T02:20:42.414Z,2.37
2017-12-26T02:21:52.359Z,2.46
2017-12-26T02:23:02.055Z,2.37
2017-12-26T02:24:12.004Z,2.41
2017-12-26T02:25:21.998Z,2.39
2017-12-26T02:26:31.938Z,2.4
2017-12-26T02:27:41.364Z,2.41
2017-12-26T02:28:50.796Z,2.39
2017-12-26T02:30:00.228Z,2.33
2017-12-26T02:31:09.938Z,2.43
2017-12-26T02:32:19.879Z,2.36
2017-12-26T02:33:29.830Z,2.36
2017-12-26T02:34:39.792Z,2.37
2017-12-26T02:35:49.493Z,2.32
2017-12-26T02:36:59.439Z,2.33
2017-12-26T02:38:09.145Z,2.36
2017-12-26T02:39:19.122Z,2.37
2017-12-26T02:40:29.072Z,2.28
2017-12-26T02:41:38.764Z,2.25
2017-12-26T02:42:48.721Z,2.32
2017-12-26T02:43:58.667Z,2.26
2017-12-26T02:45:08.644Z,2.32
2017-12-26T02:46:18.590Z,2.28
2017-12-26T02:47:28.295Z,2.26
2017-12-26T02:48:37.755Z,2.28
2017-12-26T02:49:47.697Z,2.43
2017-12-26T02:50:57.655Z,2.37
2017-12-26T02:52:07.613Z,2.37
2017-12-26T02:53:17.609Z,2.28
2017-12-26T02:54:27.313Z,2.33
2017-12-26T02:55:37.493Z,2.33
2017-12-26T02:56:47.197Z,2.33
2017-12-26T02:57:57.149Z,2.33
2017-12-26T02:59:07.097Z,2.28
2017-12-26T03:00:16.800Z,2.26
2017-12-26T03:01:26.491Z,2.23
2017-12-26T03:02:36.427Z,2.25
2017-12-26T03:03:46.363Z,2.32
2017-12-26T03:04:56.328Z,2.28
2017-12-26T03:06:06.274Z,2.32
2017-12-26T03:07:15.984Z,2.3
2017-12-26T03:08:25.932Z,2.28
2017-12-26T03:09:35.615Z,2.28
2017-12-26T03:10:45.593Z,2.3
2017-12-26T03:11:55.279Z,2.33
2017-12-26T03:13:04.972Z,2.33
2017-12-26T03:14:14.673Z,2.26
2017-12-26T03:15:24.612Z,2.28
2017-12-26T03:16:34.327Z,2.23
2017-12-26T03:17:44.291Z,2.28
2017-12-26T03:18:54.236Z,2.37
2017-12-26T03:20:03.926Z,2.37
2017-12-26T03:21:13.895Z,2.25
2017-12-26T03:22:23.839Z,2.33
2017-12-26T03:23:33.542Z,2.32
2017-12-26T03:24:43.494Z,2.32
2017-12-26T03:25:53.441Z,2.34
2017-12-26T03:27:03.381Z,2.33
2017-12-26T03:28:13.334Z,2.32
2017-12-26T03:29:23.338Z,2.28
2017-12-26T03:30:33.286Z,2.25
2017-12-26T03:31:42.979Z,2.26
2017-12-26T03:32:52.946Z,2.26
2017-12-26T03:34:02.882Z,2.26
2017-12-26T03:35:12.838Z,2.32
2017-12-26T03:36:22.770Z,2.28
2017-12-26T03:37:32.200Z,2.3
2017-12-26T03:38:42.150Z,2.32
2017-12-26T03:39:51.832Z,2.39
2017-12-26T03:41:01.832Z,2.36
2017-12-26T03:42:11.528Z,2.28
2017-12-26T03:43:21.210Z,2.33
2017-12-26T03:44:31.156Z,2.26
2017-12-26T03:45:40.843Z,2.39
2017-12-26T03:46:50.525Z,2.34
2017-12-26T03:48:00.469Z,2.39
2017-12-26T03:49:10.411Z,2.23
2017-12-26T03:50:20.349Z,2.32
2017-12-26T03:51:30.305Z,2.25
2017-12-26T03:52:40.255Z,2.26
2017-12-26T03:53:50.204Z,2.39
2017-12-26T03:55:00.143Z,2.41
2017-12-26T03:56:10.092Z,2.39
2017-12-26T03:57:19.786Z,2.34
2017-12-26T03:58:29.478Z,2.43
2017-12-26T03:59:39.427Z,2.44
2017-12-26T04:00:49.108Z,2.39
2017-12-26T04:01:59.103Z,2.41
2017-12-26T04:03:09.054Z,2.43
2017-12-26T04:04:18.499Z,2.41
2017-12-26T04:05:28.198Z,2.36
2017-12-26T04:06:37.876Z,2.41
2017-12-26T04:07:47.824Z,2.46
2017-12-26T04:08:57.770Z,2.4
2017-12-26T04:10:07.717Z,2.37
2017-12-26T04:11:17.660Z,2.41
2017-12-26T04:12:27.598Z,2.39
2017-12-26T04:13:37.548Z,2.32
2017-12-26T04:14:47.243Z,2.36
2017-12-26T04:15:57.201Z,2.37
2017-12-26T04:17:07.146Z,2.39
2017-12-26T04:18:16.829Z,2.39
2017-12-26T04:19:26.515Z,2.33
2017-12-26T04:20:36.458Z,2.26
2017-12-26T04:21:46.400Z,2.28
2017-12-26T04:22:56.097Z,2.26
2017-12-26T04:24:05.522Z,2.36
2017-12-26T04:25:15.207Z,2.3
2017-12-26T04:26:25.156Z,2.28
2017-12-26T04:27:34.643Z,2.34
2017-12-26T04:28:44.584Z,2.37
2017-12-26T04:29:54.533Z,2.37
2017-12-26T04:31:04.467Z,2.39
2017-12-26T04:32:14.426Z,2.4
2017-12-26T04:33:24.102Z,2.4
2017-12-26T04:34:34.041Z,2.37
2017-12-26T04:35:44.242Z,2.41
2017-12-26T04:36:54.543Z,2.41
2017-12-26T04:38:04.478Z,2.4
2017-12-26T04:39:14.429Z,2.46
2017-12-26T04:40:24.373Z,2.41
2017-12-26T04:41:34.336Z,2.37
2017-12-26T04:42:44.027Z,2.4
2017-12-26T04:43:53.977Z,2.41
2017-12-26T04:45:03.931Z,2.43
2017-12-26T04:46:13.914Z,2.4
2017-12-26T04:47:23.605Z,2.4
2017-12-26T04:48:33.539Z,2.36
2017-12-26T04:49:43.480Z,2.4
2017-12-26T04:50:53.425Z,2.4
2017-12-26T04:52:03.370Z,2.36
2017-12-26T04:53:13.572Z,2.39
2017-12-26T04:54:23.519Z,2.5
2017-12-26T04:55:33.464Z,2.44
2017-12-26T04:56:43.160Z,2.46
2017-12-26T04:57:52.839Z,2.47
2017-12-26T04:59:02.828Z,2.46
2017-12-26T05:00:12.778Z,2.5
2017-12-26T05:01:22.472Z,2.5
2017-12-26T05:02:32.180Z,2.47
2017-12-26T05:03:42.118Z,2.47
2017-12-26T05:04:51.812Z,2.46
2017-12-26T05:06:01.515Z,2.52
2017-12-26T05:07:11.478Z,2.46
2017-12-26T05:08:21.441Z,2.54
2017-12-26T05:09:31.139Z,2.58
2017-12-26T05:10:41.076Z,2.59
2017-12-26T05:11:50.775Z,2.58
2017-12-26T05:13:00.960Z,2.61
2017-12-26T05:14:10.919Z,2.52
2017-12-26T05:15:20.870Z,2.46
2017-12-26T05:16:30.879Z,2.5
2017-12-26T05:17:40.820Z,2.52
2017-12-26T05:18:50.765Z,2.47
2017-12-26T05:20:00.730Z,2.47
2017-12-26T05:21:10.678Z,2.51
2017-12-26T05:22:20.630Z,2.52
2017-12-26T05:23:30.578Z,2.44
2017-12-26T05:24:40.277Z,2.47
2017-12-26T05:25:49.958Z,2.51
2017-12-26T05:26:59.397Z,2.4
2017-12-26T05:28:09.342Z,2.52
2017-12-26T05:29:19.278Z,2.5
2017-12-26T05:30:29.226Z,2.46
2017-12-26T05:31:38.919Z,2.47
2017-12-26T05:32:48.872Z,2.5
2017-12-26T05:33:58.828Z,2.5
2017-12-26T05:35:08.511Z,2.47
2017-12-26T05:36:18.210Z,2.57
2017-12-26T05:37:28.216Z,2.5
2017-12-26T05:38:38.159Z,2.55
2017-12-26T05:39:48.105Z,2.59
2017-12-26T05:40:57.787Z,2.58
2017-12-26T05:42:07.470Z,2.58
2017-12-26T05:43:17.171Z,2.55
2017-12-26T05:44:27.120Z,2.57
2017-12-26T05:45:37.066Z,2.57
2017-12-26T05:46:47.012Z,2.59
2017-12-26T05:47:56.698Z,2.47
2017-12-26T05:49:06.891Z,2.54
2017-12-26T05:50:16.839Z,2.51
2017-12-26T05:51:26.514Z,2.43
2017-12-26T05:52:36.454Z,2.5
2017-12-26T05:53:46.403Z,2.5
2017-12-26T05:54:56.361Z,2.46
2017-12-26T05:56:06.359Z,2.57
2017-12-26T05:57:16.314Z,2.58
2017-12-26T05:58:26.001Z,2.5
2017-12-26T05:59:35.940Z,2.61
2017-12-26T06:00:45.887Z,2.47
2017-12-26T06:01:55.571Z,2.59
2017-12-26T06:03:05.523Z,2.57
2017-12-26T06:04:15.470Z,2.59
2017-12-26T06:05:25.432Z,2.46
2017-12-26T06:06:35.118Z,2.59
2017-12-26T06:07:45.085Z,2.59
2017-12-26T06:08:55.027Z,2.68
2017-12-26T06:10:04.980Z,2.59
2017-12-26T06:11:14.676Z,2.57
2017-12-26T06:12:24.612Z,2.7
2017-12-26T06:13:34.555Z,2.7
2017-12-26T06:14:44.271Z,2.65
2017-12-26T06:15:54.215Z,2.68
2017-12-26T06:17:04.154Z,2.69
2017-12-26T06:18:14.099Z,2.72
2017-12-26T06:19:24.037Z,2.72
2017-12-26T06:20:33.770Z,2.65
2017-12-26T06:21:43.709Z,2.65
2017-12-26T06:22:53.647Z,2.82
2017-12-26T06:24:03.339Z,2.69
2017-12-26T06:25:13.291Z,2.69
2017-12-26T06:26:23.253Z,2.82
2017-12-26T06:27:32.940Z,2.73
2017-12-26T06:28:42.649Z,2.75
2017-12-26T06:29:52.598Z,2.75
2017-12-26T06:31:02.547Z,2.73
2017-12-26T06:32:12.240Z,2.8
2017-12-26T06:33:22.186Z,2.8
2017-12-26T06:34:32.128Z,2.82
2017-12-26T06:35:41.871Z,2.85
2017-12-26T06:36:51.831Z,2.88
2017-12-26T06:38:01.776Z,2.91
2017-12-26T06:39:11.723Z,2.93
2017-12-26T06:40:21.727Z,3
2017-12-26T06:41:31.418Z,3.01
2017-12-26T06:42:41.129Z,2.94
2017-12-26T06:43:51.088Z,3.03
2017-12-26T06:45:00.781Z,3.03
2017-12-26T06:46:10.744Z,3
2017-12-26T06:47:20.448Z,3.09
2017-12-26T06:48:30.406Z,3.12
2017-12-26T06:49:40.103Z,3.15
2017-12-26T06:50:50.058Z,3.21
2017-12-26T06:51:59.753Z,3.21
2017-12-26T06:53:09.709Z,3.21
2017-12-26T06:54:19.707Z,3.21
2017-12-26T06:55:29.652Z,3.26
2017-12-26T06:56:39.598Z,3.21
2017-12-26T06:57:49.283Z,3.36
2017-12-26T06:58:59.239Z,3.3
2017-12-26T07:00:09.197Z,3.29
2017-12-26T07:01:19.143Z,3.24
2017-12-26T07:02:29.100Z,3.31
2017-12-26T07:03:39.047Z,3.27
2017-12-26T07:04:48.987Z,3.27
2017-12-26T07:05:58.929Z,3.18
2017-12-26T07:07:08.877Z,3.19
2017-12-26T07:08:18.571Z,3.26
2017-12-26T07:09:28.266Z,3.18
2017-12-26T07:10:37.968Z,3.18
2017-12-26T07:11:47.910Z,3.15
2017-12-26T07:12:57.867Z,3.11
2017-12-26T07:14:07.842Z,3.12
2017-12-26T07:15:17.535Z,3.11
2017-12-26T07:16:26.983Z,3.11
2017-12-26T07:17:36.661Z,3.06
2017-12-26T07:18:46.350Z,3.11
2017-12-26T07:19:56.032Z,3.12
2017-12-26T07:21:05.987Z,3.09
2017-12-26T07:22:15.973Z,3.06
2017-12-26T07:23:25.943Z,3.11
2017-12-26T07:24:35.949Z,3.05
2017-12-26T07:25:45.899Z,3.08
2017-12-26T07:26:55.581Z,3.01
2017-12-26T07:28:05.530Z,3.11
2017-12-26T07:29:15.495Z,3.13
2017-12-26T07:30:25.459Z,3.13
2017-12-26T07:31:35.403Z,3.11
2017-12-26T07:32:45.107Z,3.11
2017-12-26T07:33:55.052Z,3.06
2017-12-26T07:35:04.999Z,3.09
2017-12-26T07:36:14.447Z,3.06
2017-12-26T07:37:24.144Z,3.15
2017-12-26T07:38:33.836Z,3.12
2017-12-26T07:39:43.534Z,3.09
2017-12-26T07:40:53.238Z,3.18
2017-12-26T07:42:02.663Z,3.11
2017-12-26T07:43:12.611Z,3.12
2017-12-26T07:44:22.298Z,3.11
2017-12-26T07:45:31.996Z,3.08
2017-12-26T07:46:41.959Z,3.08
2017-12-26T07:47:51.920Z,3.16
2017-12-26T07:49:01.885Z,3.16
2017-12-26T07:50:12.056Z,3.26
2017-12-26T07:51:21.752Z,3.26
2017-12-26T07:52:31.704Z,3.24
2017-12-26T07:53:41.657Z,3.31
2017-12-26T07:54:51.342Z,3.34
2017-12-26T07:56:01.280Z,3.36
2017-12-26T07:57:11.295Z,3.29
2017-12-26T07:58:20.995Z,3.3
2017-12-26T07:59:30.692Z,3.33
2017-12-26T08:00:40.643Z,3.33
2017-12-26T08:01:50.604Z,3.33
2017-12-26T08:03:00.565Z,3.34
2017-12-26T08:04:10.512Z,3.34
2017-12-26T08:05:20.467Z,3.4
2017-12-26T08:06:30.421Z,3.41
2017-12-26T08:07:40.117Z,3.36
2017-12-26T08:08:50.077Z,3.49
2017-12-26T08:10:00.039Z,3.55
2017-12-26T08:11:09.729Z,3.46
2017-12-26T08:12:19.434Z,3.49
2017-12-26T08:13:29.130Z,3.55
2017-12-26T08:14:38.823Z,3.49
2017-12-26T08:15:48.768Z,3.55
2017-12-26T08:16:58.712Z,3.49
2017-12-26T08:18:08.738Z,3.61
2017-12-26T08:19:18.692Z,3.59
2017-12-26T08:20:28.132Z,3.67
2017-12-26T08:21:38.084Z,3.64
2017-12-26T08:22:47.508Z,3.67
2017-12-26T08:23:57.256Z,3.7
2017-12-26T08:25:06.944Z,3.71
2017-12-26T08:26:16.896Z,3.71
2017-12-26T08:27:26.843Z,3.71
2017-12-26T08:28:36.529Z,3.81
2017-12-26T08:29:46.216Z,3.82
2017-12-26T08:30:56.203Z,3.89
2017-12-26T08:32:06.153Z,3.92
2017-12-26T08:33:16.097Z,3.84
2017-12-26T08:34:25.800Z,3.78
2017-12-26T08:35:35.762Z,3.96
2017-12-26T08:36:45.710Z,3.89
2017-12-26T08:37:55.692Z,3.92
2017-12-26T08:39:05.639Z,3.92
2017-12-26T08:40:15.608Z,3.94
2017-12-26T08:41:25.572Z,4
2017-12-26T08:42:35.527Z,4
2017-12-26T08:43:45.490Z,4.09
2017-12-26T08:44:55.458Z,3.99
2017-12-26T08:46:05.146Z,4.16
2017-12-26T08:47:15.105Z,4.09
2017-12-26T08:48:25.056Z,4.06
2017-12-26T08:49:35.002Z,4.07
2017-12-26T08:50:44.705Z,4.09
2017-12-26T08:51:54.720Z,4
2017-12-26T08:53:04.675Z,4.09
2017-12-26T08:54:14.110Z,4.13
2017-12-26T08:55:24.061Z,4.14
2017-12-26T08:56:34.012Z,4.16
2017-12-26T08:57:43.966Z,4.18
2017-12-26T08:58:53.656Z,4.24
2017-12-26T09:00:03.617Z,4.22
2017-12-26T09:01:13.569Z,4.27
2017-12-26T09:02:23.532Z,4.27
2017-12-26T09:03:33.233Z,4.21
2017-12-26T09:04:42.918Z,4.3
2017-12-26T09:05:52.870Z,4.27
2017-12-26T09:07:02.307Z,4.38
2017-12-26T09:08:11.746Z,4.31
2017-12-26T09:09:21.701Z,4.43
2017-12-26T09:10:31.665Z,4.46
2017-12-26T09:11:41.366Z,4.39
2017-12-26T09:12:51.326Z,4.4
2017-12-26T09:14:01.269Z,4.45
2017-12-26T09:15:10.720Z,4.49
2017-12-26T09:16:20.411Z,4.58
2017-12-26T09:17:30.367Z,4.52
2017-12-26T09:18:40.334Z,4.5
2017-12-26T09:19:50.301Z,4.56
2017-12-26T09:20:59.996Z,4.52
2017-12-26T09:22:09.954Z,4.57
2017-12-26T09:23:19.909Z,4.5
2017-12-26T09:24:29.599Z,4.52
2017-12-26T09:25:39.041Z,4.56
2017-12-26T09:26:48.735Z,4.5
2017-12-26T09:27:58.689Z,4.57
2017-12-26T09:29:08.387Z,4.67
2017-12-26T09:30:18.343Z,4.71
2017-12-26T09:31:27.530Z,4.68
2017-12-26T09:32:37.499Z,4.75
2017-12-26T09:33:47.440Z,4.68
2017-12-26T09:34:57.156Z,4.92
2017-12-26T09:36:07.127Z,4.86
2017-12-26T09:37:17.081Z,4.9
2017-12-26T09:38:26.773Z,5.07
2017-12-26T09:39:36.722Z,4.98
2017-12-26T09:40:46.503Z,5.19
2017-12-26T09:41:56.451Z,5.34
2017-12-26T09:43:06.395Z,5.38
2017-12-26T09:44:16.098Z,5.49
2017-12-26T09:45:26.053Z,5.52
2017-12-26T09:46:36.017Z,5.7
2017-12-26T09:47:46.025Z,5.61
2017-12-26T09:48:55.986Z,5.77
2017-12-26T09:50:05.962Z,5.7
2017-12-26T09:51:15.917Z,5.87
2017-12-26T09:52:25.868Z,5.88
2017-12-26T09:53:35.819Z,5.91
2017-12-26T09:54:45.254Z,5.95
2017-12-26T09:55:54.959Z,6.07
2017-12-26T09:57:04.908Z,6.16
2017-12-26T09:58:14.603Z,6.15
2017-12-26T09:59:24.585Z,6.17
2017-12-26T10:00:34.542Z,6.29
2017-12-26T10:01:44.516Z,6.36
2017-12-26T10:02:54.493Z,6.39
2017-12-26T10:04:04.442Z,6.52
2017-12-26T10:05:14.413Z,6.59
2017-12-26T10:06:24.126Z,6.71
2017-12-26T10:07:34.075Z,6.85
2017-12-26T10:08:44.050Z,6.83
2017-12-26T10:09:54.015Z,6.9
2017-12-26T10:11:03.718Z,7.1
2017-12-26T10:12:13.433Z,7.04
2017-12-26T10:13:23.416Z,7.29
2017-12-26T10:14:32.876Z,7.31
2017-12-26T10:15:42.844Z,7.37
2017-12-26T10:16:52.813Z,7.61
2017-12-26T10:18:02.784Z,7.78
2017-12-26T10:19:12.742Z,7.87
2017-12-26T10:20:22.447Z,7.91
2017-12-26T10:21:32.135Z,8.01
2017-12-26T10:22:42.100Z,8.08
2017-12-26T10:23:52.060Z,8.14
2017-12-26T10:25:02.016Z,8.28
2017-12-26T10:26:11.994Z,8.35
2017-12-26T10:27:21.704Z,8.53
2017-12-26T10:28:31.406Z,8.68
2017-12-26T10:29:41.378Z,8.72
2017-12-26T10:30:51.349Z,8.68
2017-12-26T10:32:01.314Z,8.81
2017-12-26T10:33:11.297Z,9.09
2017-12-26T10:34:21.271Z,9.24
2017-12-26T10:35:31.262Z,9.26
2017-12-26T10:36:40.974Z,9.15
2017-12-26T10:37:50.933Z,9.15
2017-12-26T10:39:00.911Z,9.13
2017-12-26T10:40:10.902Z,9.18
2017-12-26T10:41:20.932Z,9.12
2017-12-26T10:42:30.135Z,9.24
2017-12-26T10:43:39.857Z,9.24
2017-12-26T10:44:49.595Z,9.24
2017-12-26T10:45:59.573Z,9.24
2017-12-26T10:47:09.285Z,9.36
2017-12-26T10:48:19.282Z,9.45
2017-12-26T10:49:29.006Z,9.59
2017-12-26T10:50:38.994Z,9.81
2017-12-26T10:51:48.952Z,9.82
2017-12-26T10:52:58.926Z,9.67
2017-12-26T10:54:08.907Z,9.58
2017-12-26T10:55:18.889Z,9.76
2017-12-26T10:56:28.868Z,9.73
2017-12-26T10:57:38.870Z,9.94
2017-12-26T10:58:48.599Z,9.87
2017-12-26T10:59:58.318Z,9.85
2017-12-26T11:01:08.036Z,9.92
2017-12-26T11:02:17.747Z,10.02
2017-12-26T11:03:27.716Z,10.05
2017-12-26T11:04:37.447Z,10.28
2017-12-26T11:05:47.433Z,10.33
2017-12-26T11:06:57.149Z,10.28
2017-12-26T11:08:06.619Z,10.2
2017-12-26T11:09:16.592Z,10.21
2017-12-26T11:10:26.313Z,10.25
2017-12-26T11:11:36.042Z,10.23
2017-12-26T11:12:46.027Z,10.39
2017-12-26T11:13:56.008Z,10.46
2017-12-26T11:15:05.722Z,10.42
2017-12-26T11:16:15.723Z,10.39
2017-12-26T11:17:25.707Z,10.34
2017-12-26T11:18:35.676Z,10.34
2017-12-26T11:19:45.670Z,10.43
2017-12-26T11:20:55.664Z,10.48
2017-12-26T11:22:05.640Z,10.59
2017-12-26T11:23:15.622Z,10.55
2017-12-26T11:24:25.611Z,10.62
2017-12-26T11:25:35.598Z,10.53
2017-12-26T11:26:45.748Z,10.45
2017-12-26T11:27:55.711Z,10.43
2017-12-26T11:29:05.718Z,10.43
2017-12-26T11:30:15.688Z,10.59
2017-12-26T11:31:25.743Z,10.68
2017-12-26T11:32:35.725Z,10.53
2017-12-26T11:33:45.698Z,10.53
2017-12-26T11:34:55.694Z,10.53
2017-12-26T11:36:05.423Z,10.53
2017-12-26T11:37:15.435Z,10.48
2017-12-26T11:38:25.414Z,10.71
2017-12-26T11:39:35.412Z,10.67
2017-12-26T11:40:45.402Z,10.79
2017-12-26T11:41:55.393Z,10.68
2017-12-26T11:43:05.373Z,10.65
2017-12-26T11:44:15.362Z,10.71
2017-12-26T11:45:24.830Z,10.79
2017-12-26T11:46:34.802Z,11.01
2017-12-26T11:47:44.781Z,10.95
2017-12-26T11:48:54.306Z,11.02
2017-12-26T11:50:04.286Z,11.13
2017-12-26T11:51:14.268Z,11.13
2017-12-26T11:52:24.249Z,11.3
2017-12-26T11:53:34.224Z,11.22
2017-12-26T11:54:44.201Z,11.27
2017-12-26T11:55:53.926Z,11.19
2017-12-26T11:57:03.728Z,11.37
2017-12-26T11:58:13.714Z,11.25
2017-12-26T11:59:23.700Z,11.38
2017-12-26T12:00:33.680Z,11.52
2017-12-26T12:01:43.672Z,11.45
2017-12-26T12:02:53.384Z,11.45
2017-12-26T12:04:03.372Z,11.48
2017-12-26T12:05:13.335Z,11.73
2017-12-26T12:06:23.057Z,11.8
2017-12-26T12:07:33.038Z,11.78
2017-12-26T12:08:43.047Z,11.78
2017-12-26T12:09:53.034Z,11.71
2017-12-26T12:11:03.031Z,11.62
2017-12-26T12:12:12.758Z,11.59
2017-12-26T12:13:22.756Z,11.45
2017-12-26T12:14:32.755Z,11.22
2017-12-26T12:15:42.237Z,11.07
2017-12-26T12:16:52.208Z,10.97
2017-12-26T12:18:02.300Z,10.86
2017-12-26T12:19:12.048Z,10.75
2017-12-26T12:20:22.042Z,10.65
2017-12-26T12:21:32.040Z,10.64
2017-12-26T12:22:41.777Z,10.57
2017-12-26T12:23:51.753Z,10.41
2017-12-26T12:25:01.729Z,10.41
2017-12-26T12:26:11.191Z,10.38
2017-12-26T12:27:20.645Z,10.3
2017-12-26T12:28:30.632Z,10.33
2017-12-26T12:29:40.355Z,10.28
2017-12-26T12:30:50.393Z,10.18
2017-12-26T12:32:00.352Z,10.23
2017-12-26T12:33:10.323Z,10.2
2017-12-26T12:34:20.301Z,10.23
2017-12-26T12:35:30.275Z,10.25
2017-12-26T12:36:40.257Z,10.18
2017-12-26T12:37:50.228Z,10.27
2017-12-26T12:38:59.950Z,10.23
2017-12-26T12:40:09.933Z,10.21
2017-12-26T12:41:19.648Z,10.25
2017-12-26T12:42:31.129Z,10.25
2017-12-26T12:43:40.852Z,10.24
2017-12-26T12:44:50.825Z,10.2
2017-12-26T12:46:00.542Z,10.28
2017-12-26T12:47:10.260Z,10.25
2017-12-26T12:48:20.250Z,10.23
2017-12-26T12:49:30.280Z,10.27
2017-12-26T12:50:40.021Z,10.2
2017-12-26T12:51:49.486Z,10.24
2017-12-26T12:52:59.480Z,10.21
2017-12-26T12:54:09.194Z,10.15
2017-12-26T12:55:18.664Z,10.15
2017-12-26T12:56:28.412Z,10.12
2017-12-26T12:57:38.373Z,10.07
2017-12-26T12:58:48.101Z,10.09
2017-12-26T12:59:57.812Z,10.07
2017-12-26T13:01:07.800Z,10.12
2017-12-26T13:02:17.512Z,10.06
2017-12-26T13:03:27.502Z,10.06
2017-12-26T13:04:37.272Z,10.1
2017-12-26T13:05:47.384Z,10.1
2017-12-26T13:06:57.370Z,10.21
2017-12-26T13:08:06.829Z,10.23
2017-12-26T13:09:16.540Z,10.27
2017-12-26T13:10:26.307Z,10.3
2017-12-26T13:11:36.282Z,10.23
2017-12-26T13:12:46.263Z,10.27
2017-12-26T13:13:56.227Z,10.3
2017-12-26T13:15:06.217Z,10.33
2017-12-26T13:16:16.184Z,10.33
2017-12-26T13:17:25.633Z,10.36
2017-12-26T13:18:35.605Z,10.34
2017-12-26T13:19:45.318Z,10.34
2017-12-26T13:20:55.035Z,10.46
2017-12-26T13:22:05.014Z,10.41
2017-12-26T13:23:14.723Z,10.36
2017-12-26T13:24:24.448Z,10.45
2017-12-26T13:25:34.428Z,10.45
2017-12-26T13:26:44.406Z,10.43
2017-12-26T13:27:54.123Z,10.51
2017-12-26T13:29:04.104Z,10.45
2017-12-26T13:30:13.832Z,10.43
2017-12-26T13:31:23.815Z,10.45
2017-12-26T13:32:33.789Z,10.45
2017-12-26T13:33:43.756Z,10.45
2017-12-26T13:34:53.463Z,10.42
2017-12-26T13:36:03.441Z,10.49
2017-12-26T13:37:13.407Z,10.41
2017-12-26T13:38:23.121Z,10.45
2017-12-26T13:39:33.078Z,10.43
2017-12-26T13:40:42.840Z,10.45
2017-12-26T13:41:52.795Z,10.36
2017-12-26T13:43:02.755Z,10.38
2017-12-26T13:44:12.460Z,10.43
2017-12-26T13:45:22.431Z,10.34
2017-12-26T13:46:32.384Z,10.42
2017-12-26T13:47:42.343Z,10.34
2017-12-26T13:48:52.294Z,10.33
2017-12-26T13:50:02.006Z,10.34
2017-12-26T13:51:11.762Z,10.38
2017-12-26T13:52:21.727Z,10.31
2017-12-26T13:53:31.693Z,10.3
2017-12-26T13:54:41.656Z,10.36
2017-12-26T13:55:51.613Z,10.41
2017-12-26T13:57:01.319Z,10.34
2017-12-26T13:58:11.013Z,10.33
2017-12-26T13:59:20.985Z,10.33
2017-12-26T14:00:30.946Z,10.39
2017-12-26T14:01:40.903Z,10.34
2017-12-26T14:02:50.847Z,10.38
2017-12-26T14:04:00.813Z,10.28
2017-12-26T14:05:10.793Z,10.23
2017-12-26T14:06:20.501Z,10.28
2017-12-26T14:07:30.202Z,10.28
2017-12-26T14:08:40.160Z,10.23
2017-12-26T14:09:50.135Z,10.23
2017-12-26T14:11:00.112Z,10.36
2017-12-26T14:12:09.817Z,10.36
2017-12-26T14:13:19.510Z,10.39
2017-12-26T14:14:29.467Z,10.23
2017-12-26T14:15:38.914Z,10.31
2017-12-26T14:16:48.606Z,10.25
2017-12-26T14:17:58.565Z,10.06
2017-12-26T14:19:08.514Z,10
2017-12-26T14:20:18.226Z,9.84
2017-12-26T14:21:28.180Z,9.56
2017-12-26T14:22:38.174Z,9.21
2017-12-26T14:23:48.126Z,8.97
2017-12-26T14:24:58.108Z,8.78
2017-12-26T14:26:08.077Z,8.69
2017-12-26T14:27:18.086Z,8.61
2017-12-26T14:28:27.779Z,8.52
2017-12-26T14:29:37.746Z,8.44
2017-12-26T14:30:47.702Z,8.44
2017-12-26T14:31:57.662Z,8.34
2017-12-26T14:33:07.654Z,8.35
2017-12-26T14:34:17.344Z,8.23
2017-12-26T14:35:27.291Z,8.17
2017-12-26T14:36:37.292Z,8.14
2017-12-26T14:37:46.691Z,7.96
2017-12-26T14:38:56.650Z,7.83
2017-12-26T14:40:06.619Z,7.72
2017-12-26T14:41:16.066Z,7.75
2017-12-26T14:42:25.514Z,7.75
2017-12-26T14:43:35.221Z,7.75
2017-12-26T14:44:44.919Z,7.75
2017-12-26T14:45:54.734Z,7.7
2017-12-26T14:47:04.691Z,7.74
2017-12-26T14:48:13.874Z,7.74
2017-12-26T14:49:23.832Z,7.61
2017-12-26T14:50:33.787Z,7.64
2017-12-26T14:51:44.008Z,7.62
2017-12-26T14:52:53.701Z,7.62
2017-12-26T14:54:03.644Z,7.66
2017-12-26T14:55:13.343Z,7.55
2017-12-26T14:56:23.293Z,7.56
2017-12-26T14:57:32.729Z,7.53
2017-12-26T14:58:42.690Z,7.46
2017-12-26T14:59:52.657Z,7.56
2017-12-26T15:01:02.352Z,7.55
2017-12-26T15:02:12.040Z,7.53
2017-12-26T15:03:22.008Z,7.41
2017-12-26T15:04:31.977Z,7.51
2017-12-26T15:05:41.938Z,7.48
2017-12-26T15:06:51.703Z,7.58
2017-12-26T15:08:01.664Z,7.59
2017-12-26T15:09:11.623Z,7.56
2017-12-26T15:10:21.588Z,7.47
2017-12-26T15:11:31.534Z,7.61
2017-12-26T15:12:41.256Z,7.61
2017-12-26T15:13:51.208Z,7.56
2017-12-26T15:15:00.903Z,7.51
2017-12-26T15:16:10.604Z,7.46
2017-12-26T15:17:20.570Z,7.55
2017-12-26T15:18:30.249Z,7.59
2017-12-26T15:19:40.215Z,7.58
2017-12-26T15:20:49.916Z,7.55
2017-12-26T15:21:59.886Z,7.53
2017-12-26T15:23:09.838Z,7.53
2017-12-26T15:24:19.797Z,7.5
2017-12-26T15:25:29.237Z,7.55
2017-12-26T15:26:39.196Z,7.51